Val-d'Or Airport
CYVO : rendu visible

Aérodrome :











RETROUVEZ-NOUS SUR...

 
LOGIN :

S'inscrire | Disclaimer

   EN    FR    IT 

 









Légende :    VFR   VFR Marginal   IFR   IFR Intensif   IFR Très Intensif
Visi : 
Plafond : 
>= 8 km
>= 3000ft
5 à 8 km
1000 à 3000 ft
1500m à 5 km
500 à 1000 ft
800 à 1500m
200 à 500 ft
< 800m
< 200 ft
Symboles :   Orages  Brouillard  Fortes neiges  Fortes précipitations  Vent > 20 kt






- Altitude de l'aérodrome : 1107 ft
- Code IATA : YVO


CYVO - Val-d'Or

DERNIER METAR :
  • 060023Z 35012KT 6SM BR OVC005 M06/M07 A3009 RMK ST8 FROIN SLP217

METARs EXPIRÉS :
  • 060000Z 34010KT 5SM -FZDZ OVC007 M06/M06 A3009 RMK ST8 RIME ON INDICATOR SLP216
  • 052358Z 34008KT 6SM -FZDZ OVC007 M06/M06 A3009 RMK ST8 RIME ON INDICATOR SLP216
  • 052333Z 35010KT 15SM BKN009 M06/M07 A3008 RMK SF7 SLP215
  • 052300Z 35012KT 15SM -SN OVC008 M05/M06 A3009 RMK ST8 SLP216
  • 052200Z 33007KT 7SM -SN BKN008 OVC013 M05/M05 A3008 RMK ST7SC1 SLP213

TAF AMD TAF CYVO
Valide du 06 à 00h jusqu'au 06 à 12h UTC


060015Z 0600/0612 34010KT P6SM OVC008
TEMPO 0600/0612 5SM -FZDZ -SN BR OVC004
PROB30 0600/0612 2SM -FZDZ BR RMK NXT FCST BY 060600Z
FIR CZUL / Amérique du Nord



MET'MAP, la Météo Aéronautique d'un coup d'oeil ! - Copyright ORBIFLY Décembre 2007 - Disclaimer

ORBIFLY MET'MAP TEAM :

Programmation & Développement : Alexandra Zaïnal
Sur une idée originale de : Baudouin d'Aumeries
Assistance à la programmation : Marc-Olivier Méhu
Soutien technique & logistique : Manuel Goepfert

Contact : metmap@orbifly.com




SOURCES & CREDITS :

   NOAA       Earth
Advisory